createdAt,value
2023-04-30T00:01:49.969Z,59.36
2023-04-30T00:04:18.448Z,59.96
2023-04-30T00:06:46.728Z,62.32
2023-04-30T00:09:14.972Z,64.12
2023-04-30T00:11:43.143Z,63.88
2023-04-30T00:14:11.521Z,63.15
2023-04-30T00:16:39.727Z,62.85
2023-04-30T00:19:08.677Z,62.21
2023-04-30T00:21:36.862Z,61.61
2023-04-30T00:24:06.034Z,61.78
2023-04-30T00:26:34.125Z,61.67
2023-04-30T00:29:02.913Z,61.20
2023-04-30T00:31:31.153Z,60.85
2023-04-30T00:33:59.566Z,60.52
2023-04-30T00:36:27.743Z,58.62
2023-04-30T00:38:55.910Z,57.27
2023-04-30T00:41:24.696Z,57.55
2023-04-30T00:43:52.763Z,58.66
2023-04-30T00:46:21.034Z,59.44
2023-04-30T00:48:49.414Z,61.73
2023-04-30T00:51:17.892Z,64.48
2023-04-30T00:53:46.378Z,64.53
2023-04-30T00:56:16.670Z,64.11
2023-04-30T00:58:45.890Z,63.74
2023-04-30T01:01:14.108Z,63.39
2023-04-30T01:03:42.893Z,63.22
2023-04-30T01:06:11.047Z,62.91
2023-04-30T01:08:39.325Z,62.62
2023-04-30T01:11:26.923Z,62.33
2023-04-30T01:14:11.994Z,62.31
2023-04-30T01:17:06.476Z,62.16
2023-04-30T01:19:45.962Z,62.29
2023-04-30T01:22:31.190Z,61.88
2023-04-30T01:25:15.949Z,61.88
2023-04-30T01:28:06.757Z,61.77
2023-04-30T01:30:36.152Z,61.58
2023-04-30T01:33:04.634Z,61.29
2023-04-30T01:35:40.281Z,61.09
2023-04-30T01:38:20.226Z,61.33
2023-04-30T01:40:53.736Z,61.86
2023-04-30T01:43:37.074Z,61.46
2023-04-30T01:46:23.179Z,62.01
2023-04-30T01:49:16.615Z,61.89
2023-04-30T01:51:47.370Z,61.70
2023-04-30T01:54:37.019Z,61.62
2023-04-30T01:57:24.649Z,62.21
2023-04-30T01:59:53.718Z,62.46
2023-04-30T02:02:22.135Z,62.51
2023-04-30T02:04:50.701Z,62.45
2023-04-30T02:07:29.315Z,62.34
2023-04-30T02:09:57.493Z,62.62
2023-04-30T02:12:25.770Z,62.26
2023-04-30T02:14:53.936Z,62.33
2023-04-30T02:17:22.112Z,62.35
2023-04-30T02:19:50.896Z,62.53
2023-04-30T02:22:19.062Z,62.33
2023-04-30T02:24:47.236Z,62.28
2023-04-30T02:27:15.305Z,62.18
2023-04-30T02:29:43.481Z,62.03
2023-04-30T02:32:11.858Z,61.88
2023-04-30T02:34:39.923Z,61.71
2023-04-30T02:37:08.812Z,61.78
2023-04-30T02:39:37.150Z,61.63
2023-04-30T02:42:07.001Z,61.46
2023-04-30T02:44:35.490Z,61.62
2023-04-30T02:47:03.754Z,61.32
2023-04-30T02:49:32.753Z,61.08
2023-04-30T02:52:01.329Z,61.19
2023-04-30T02:54:29.499Z,61.17
2023-04-30T02:56:57.668Z,60.92
2023-04-30T02:59:26.152Z,61.09
2023-04-30T03:01:54.323Z,60.83
2023-04-30T03:04:23.028Z,60.67
2023-04-30T03:06:51.208Z,60.64
2023-04-30T03:09:19.364Z,60.74
2023-04-30T03:11:47.535Z,61.03
2023-04-30T03:14:15.797Z,60.73
2023-04-30T03:16:44.017Z,60.23
2023-04-30T03:19:13.575Z,60.16
2023-04-30T03:21:42.060Z,60.30
2023-04-30T03:24:10.237Z,60.25
2023-04-30T03:26:38.412Z,60.21
2023-04-30T03:29:06.579Z,60.34
2023-04-30T03:31:34.721Z,60.43
2023-04-30T03:34:02.922Z,60.61
2023-04-30T03:36:31.504Z,60.87
2023-04-30T03:38:59.674Z,60.60
2023-04-30T03:41:27.954Z,60.61
2023-04-30T03:43:56.140Z,60.74
2023-04-30T03:46:24.454Z,60.67
2023-04-30T03:48:52.671Z,60.66
2023-04-30T03:51:21.971Z,60.60
2023-04-30T03:53:50.249Z,60.56
2023-04-30T03:56:18.427Z,60.44
2023-04-30T03:58:46.592Z,60.37
2023-04-30T04:01:14.765Z,60.33
2023-04-30T04:03:43.212Z,60.21
2023-04-30T04:06:11.587Z,60.27
2023-04-30T04:08:43.413Z,60.07
2023-04-30T04:11:12.501Z,60.28
2023-04-30T04:13:41.258Z,60.21
2023-04-30T04:16:10.018Z,60.06
2023-04-30T04:18:38.326Z,60.28
2023-04-30T04:21:06.903Z,60.16
2023-04-30T04:23:35.693Z,60.18
2023-04-30T04:26:03.761Z,59.93
2023-04-30T04:28:32.137Z,59.80
2023-04-30T04:31:00.626Z,59.66
2023-04-30T04:33:29.404Z,59.82
2023-04-30T04:35:58.299Z,59.84
2023-04-30T04:38:26.671Z,59.86
2023-04-30T04:40:56.783Z,59.87
2023-04-30T04:43:25.164Z,58.22
2023-04-30T04:45:53.388Z,56.84
2023-04-30T04:48:21.918Z,58.08
2023-04-30T04:50:49.982Z,58.58
2023-04-30T04:53:18.050Z,61.30
2023-04-30T04:55:46.221Z,64.24
2023-04-30T04:58:14.396Z,64.28
2023-04-30T05:00:42.592Z,63.61
2023-04-30T05:03:11.290Z,62.84
2023-04-30T05:05:39.526Z,62.59
2023-04-30T05:08:07.600Z,62.42
2023-04-30T05:10:35.683Z,62.30
2023-04-30T05:13:04.153Z,62.05
2023-04-30T05:15:32.213Z,61.88
2023-04-30T05:18:00.424Z,61.74
2023-04-30T05:20:28.772Z,60.93
2023-04-30T05:22:56.838Z,60.71
2023-04-30T05:25:24.905Z,60.60
2023-04-30T05:27:53.092Z,60.30
2023-04-30T05:30:21.252Z,60.03
2023-04-30T05:32:52.361Z,60.17
2023-04-30T05:35:20.647Z,60.01
2023-04-30T05:37:49.076Z,59.81
2023-04-30T05:40:17.421Z,58.15
2023-04-30T05:42:45.528Z,56.69
2023-04-30T05:45:16.119Z,57.63
2023-04-30T05:47:44.524Z,58.67
2023-04-30T05:50:13.080Z,59.74
2023-04-30T05:52:41.352Z,62.52
2023-04-30T05:55:11.149Z,64.19
2023-04-30T05:57:39.337Z,63.44
2023-04-30T06:00:08.097Z,63.37
2023-04-30T06:02:42.274Z,62.94
2023-04-30T06:05:10.571Z,62.40
2023-04-30T06:07:38.748Z,61.30
2023-04-30T06:10:07.681Z,61.29
2023-04-30T06:12:36.065Z,60.74
2023-04-30T06:15:04.736Z,60.14
2023-04-30T06:17:33.159Z,58.49
2023-04-30T06:20:06.512Z,57.47
2023-04-30T06:22:34.751Z,57.50
2023-04-30T06:25:03.775Z,58.71
2023-04-30T06:27:32.650Z,59.04
2023-04-30T06:30:01.264Z,59.77
2023-04-30T06:32:29.440Z,61.99
2023-04-30T06:34:57.898Z,64.19
2023-04-30T06:37:26.070Z,63.83
2023-04-30T06:39:54.382Z,62.74
2023-04-30T06:42:22.518Z,62.41
2023-04-30T06:44:50.689Z,61.76
2023-04-30T06:47:18.764Z,61.40
2023-04-30T06:49:47.147Z,60.78
2023-04-30T06:52:15.309Z,60.19
2023-04-30T06:54:44.401Z,56.95
2023-04-30T06:57:12.576Z,55.91
2023-04-30T06:59:40.768Z,56.40
2023-04-30T07:02:08.858Z,57.17
2023-04-30T07:04:36.991Z,57.71
2023-04-30T07:07:05.472Z,57.68
2023-04-30T07:09:33.539Z,58.73
2023-04-30T07:12:01.938Z,61.72
2023-04-30T07:14:29.981Z,62.19
2023-04-30T07:16:58.153Z,61.39
2023-04-30T07:19:27.264Z,59.02
2023-04-30T07:21:55.429Z,57.22
2023-04-30T07:24:23.601Z,57.00
2023-04-30T07:26:51.874Z,58.05
2023-04-30T07:29:20.075Z,58.38
2023-04-30T07:31:48.351Z,57.72
2023-04-30T07:34:16.489Z,57.84
2023-04-30T07:36:44.658Z,59.17
2023-04-30T07:39:12.933Z,59.22
2023-04-30T07:41:41.110Z,59.29
2023-04-30T07:44:09.282Z,59.99
2023-04-30T07:46:37.396Z,59.62
2023-04-30T07:49:05.934Z,59.68
2023-04-30T07:51:34.235Z,58.92
2023-04-30T07:54:02.382Z,59.50
2023-04-30T07:56:30.767Z,59.71
2023-04-30T07:58:59.010Z,59.94
2023-04-30T08:01:27.315Z,60.51
2023-04-30T08:03:55.703Z,60.49
2023-04-30T08:06:24.493Z,59.02
2023-04-30T08:08:52.647Z,60.13
2023-04-30T08:11:20.816Z,60.10
2023-04-30T08:13:48.989Z,59.74
2023-04-30T08:16:17.349Z,59.32
2023-04-30T08:18:46.796Z,59.24
2023-04-30T08:21:15.142Z,58.12
2023-04-30T08:23:43.215Z,57.59
2023-04-30T08:26:11.384Z,56.89
2023-04-30T08:28:39.982Z,56.99
2023-04-30T08:31:08.667Z,57.01
2023-04-30T08:33:36.728Z,56.54
2023-04-30T08:36:05.510Z,57.11
2023-04-30T08:38:33.578Z,55.44
2023-04-30T08:41:16.087Z,55.52
2023-04-30T08:43:45.177Z,55.20
2023-04-30T08:46:17.330Z,54.82
2023-04-30T08:48:46.131Z,55.45
2023-04-30T08:51:14.616Z,55.06
2023-04-30T08:53:43.404Z,54.54
2023-04-30T08:56:11.786Z,53.68
2023-04-30T08:58:41.072Z,53.16
2023-04-30T09:01:10.236Z,53.56
2023-04-30T09:03:38.649Z,53.72
2023-04-30T09:06:06.867Z,53.32
2023-04-30T09:08:49.636Z,53.72
2023-04-30T09:11:29.070Z,54.26
2023-04-30T09:14:01.744Z,52.53
2023-04-30T09:16:45.905Z,50.37
2023-04-30T09:19:24.532Z,50.89
2023-04-30T09:21:52.886Z,52.79
2023-04-30T09:24:21.054Z,53.09
2023-04-30T09:26:49.640Z,53.04
2023-04-30T09:29:17.812Z,52.89
2023-04-30T09:31:47.772Z,53.03
2023-04-30T09:34:16.207Z,52.14
2023-04-30T09:36:57.152Z,52.01
2023-04-30T09:39:25.247Z,52.22
2023-04-30T09:41:53.623Z,51.86
2023-04-30T09:44:32.935Z,50.38
2023-04-30T09:47:01.253Z,50.51
2023-04-30T09:49:29.614Z,48.98
2023-04-30T09:52:01.696Z,49.11
2023-04-30T09:54:31.277Z,48.67
2023-04-30T09:57:02.021Z,48.52
2023-04-30T09:59:33.158Z,48.94
2023-04-30T10:02:02.969Z,47.54
2023-04-30T10:04:35.342Z,46.68
2023-04-30T10:07:12.518Z,44.52
2023-04-30T10:09:58.225Z,44.90
2023-04-30T10:12:30.777Z,45.37
2023-04-30T10:15:23.429Z,44.57
2023-04-30T10:18:05.458Z,43.31
2023-04-30T10:20:37.257Z,42.92
2023-04-30T10:23:05.967Z,42.29
2023-04-30T10:25:34.338Z,42.23
2023-04-30T10:28:04.626Z,41.57
2023-04-30T10:30:35.193Z,41.81
2023-04-30T10:33:16.801Z,40.18
2023-04-30T10:35:50.169Z,40.60
2023-04-30T10:38:29.985Z,40.27
2023-04-30T10:41:02.385Z,39.80
2023-04-30T10:43:31.683Z,39.18
2023-04-30T10:46:00.429Z,37.17
2023-04-30T10:48:31.302Z,38.12
2023-04-30T10:50:59.942Z,36.53
2023-04-30T10:53:31.565Z,37.20
2023-04-30T10:56:09.661Z,36.48
2023-04-30T10:58:39.721Z,35.15
2023-04-30T11:01:15.951Z,36.10
2023-04-30T11:04:11.243Z,37.00
2023-04-30T11:06:56.102Z,34.02
2023-04-30T11:09:39.433Z,34.83
2023-04-30T11:12:22.244Z,34.36
2023-04-30T11:14:50.591Z,33.65
2023-04-30T11:17:23.723Z,32.03
2023-04-30T11:19:53.926Z,31.78
2023-04-30T11:22:26.807Z,32.09
2023-04-30T11:25:03.944Z,32.65
2023-04-30T11:27:36.681Z,32.45
2023-04-30T11:30:10.973Z,31.30
2023-04-30T11:32:40.600Z,31.53
2023-04-30T11:35:09.254Z,30.24
2023-04-30T11:37:44.115Z,30.19
2023-04-30T11:40:14.023Z,29.71
2023-04-30T11:42:47.135Z,28.33
2023-04-30T11:45:21.128Z,27.81
2023-04-30T11:47:55.372Z,27.53
2023-04-30T11:50:29.816Z,27.12
2023-04-30T11:52:59.368Z,26.28
2023-04-30T11:55:28.158Z,26.56
2023-04-30T11:57:59.588Z,27.69
2023-04-30T12:00:29.640Z,26.42
2023-04-30T12:03:00.596Z,26.59
2023-04-30T12:05:29.126Z,26.08
2023-04-30T12:08:00.392Z,25.92
2023-04-30T12:10:28.545Z,25.25
2023-04-30T12:12:56.715Z,25.67
2023-04-30T12:15:29.325Z,25.38
2023-04-30T12:17:58.998Z,25.30
2023-04-30T12:20:29.636Z,24.89
2023-04-30T12:22:58.870Z,24.52
2023-04-30T12:25:30.065Z,24.41
2023-04-30T12:27:59.836Z,25.47
2023-04-30T12:30:28.174Z,25.07
2023-04-30T12:33:00.618Z,25.00
2023-04-30T12:35:31.540Z,24.87
2023-04-30T12:38:05.466Z,24.75
2023-04-30T12:40:33.948Z,24.73
2023-04-30T12:43:04.394Z,25.21
2023-04-30T12:45:53.041Z,24.71
2023-04-30T12:48:24.634Z,24.43
2023-04-30T12:50:52.961Z,24.42
2023-04-30T12:53:22.143Z,24.28
2023-04-30T12:56:15.604Z,24.53
2023-04-30T12:58:47.590Z,24.69
2023-04-30T13:01:24.066Z,24.38
2023-04-30T13:03:53.946Z,24.00
2023-04-30T13:06:23.594Z,24.59
2023-04-30T13:08:58.538Z,24.01
2023-04-30T13:11:27.890Z,23.42
2023-04-30T13:13:56.316Z,23.14
2023-04-30T13:16:25.296Z,23.41
2023-04-30T13:18:55.131Z,22.92
2023-04-30T13:21:25.136Z,22.81
2023-04-30T13:23:54.929Z,22.48
2023-04-30T13:26:24.100Z,21.60
2023-04-30T13:28:52.577Z,21.93
2023-04-30T13:31:20.863Z,22.52
2023-04-30T13:33:49.643Z,22.54
2023-04-30T13:36:17.906Z,22.11
2023-04-30T13:38:46.078Z,21.97
2023-04-30T13:41:14.515Z,22.05
2023-04-30T13:43:43.857Z,22.89
2023-04-30T13:46:12.166Z,23.21
2023-04-30T13:48:40.306Z,22.70
2023-04-30T13:51:08.583Z,22.53
2023-04-30T13:53:37.550Z,22.16
2023-04-30T13:56:07.064Z,21.49
2023-04-30T13:58:35.253Z,21.86
2023-04-30T14:01:03.793Z,21.29
2023-04-30T14:03:32.218Z,21.44
2023-04-30T14:06:00.932Z,21.71
2023-04-30T14:08:30.604Z,22.00
2023-04-30T14:10:58.995Z,21.79
2023-04-30T14:13:27.146Z,21.37
2023-04-30T14:15:56.363Z,21.27
2023-04-30T14:18:24.620Z,21.89
2023-04-30T14:20:52.789Z,22.05
2023-04-30T14:23:20.963Z,21.47
2023-04-30T14:25:49.243Z,20.99
2023-04-30T14:28:17.408Z,20.80
2023-04-30T14:30:45.792Z,20.44
2023-04-30T14:33:14.917Z,21.47
2023-04-30T14:35:43.163Z,21.32
2023-04-30T14:38:11.326Z,21.66
2023-04-30T14:40:39.400Z,20.78
2023-04-30T14:43:07.632Z,21.15
2023-04-30T14:45:35.963Z,20.76
2023-04-30T14:48:05.666Z,20.75
2023-04-30T14:50:34.033Z,20.86
2023-04-30T14:53:03.946Z,20.78
2023-04-30T14:55:32.833Z,21.00
2023-04-30T14:58:01.223Z,21.05
2023-04-30T15:00:29.611Z,21.17
2023-04-30T15:02:58.023Z,20.57
2023-04-30T15:05:26.967Z,20.51
2023-04-30T15:07:55.238Z,20.35
2023-04-30T15:10:23.421Z,21.25
2023-04-30T15:12:51.679Z,20.85
2023-04-30T15:15:21.488Z,20.72
2023-04-30T15:17:49.695Z,20.52
2023-04-30T15:20:18.040Z,20.73
2023-04-30T15:22:46.219Z,19.96
2023-04-30T15:25:14.494Z,20.01
2023-04-30T15:27:42.665Z,20.33
2023-04-30T15:30:11.463Z,20.24
2023-04-30T15:32:40.474Z,20.45
2023-04-30T15:35:09.548Z,20.51
2023-04-30T15:37:37.705Z,20.45
2023-04-30T15:40:07.096Z,20.74
2023-04-30T15:42:35.189Z,20.51
2023-04-30T15:45:04.472Z,20.13
2023-04-30T15:47:32.773Z,20.64
2023-04-30T15:50:01.372Z,20.92
2023-04-30T15:52:29.502Z,20.91
2023-04-30T15:54:57.882Z,20.90
2023-04-30T15:57:26.052Z,21.26
2023-04-30T15:59:55.035Z,21.33
2023-04-30T16:02:23.439Z,21.58
2023-04-30T16:04:51.797Z,21.69
2023-04-30T16:07:19.875Z,21.85
2023-04-30T16:09:49.265Z,21.85
2023-04-30T16:12:17.446Z,22.12
2023-04-30T16:14:45.623Z,21.94
2023-04-30T16:17:13.786Z,22.63
2023-04-30T16:19:42.168Z,22.83
2023-04-30T16:22:10.336Z,23.40
2023-04-30T16:24:38.406Z,23.91
2023-04-30T16:27:07.504Z,24.29
2023-04-30T16:29:35.676Z,24.20
2023-04-30T16:32:03.911Z,24.58
2023-04-30T16:34:32.123Z,25.84
2023-04-30T16:37:00.564Z,26.76
2023-04-30T16:39:28.765Z,26.78
2023-04-30T16:41:56.838Z,27.74
2023-04-30T16:44:25.113Z,28.13
2023-04-30T16:46:53.283Z,28.85
2023-04-30T16:49:22.686Z,29.79
2023-04-30T16:51:51.470Z,29.53
2023-04-30T16:54:19.542Z,30.68
2023-04-30T16:56:47.611Z,31.23
2023-04-30T16:59:15.885Z,30.73
2023-04-30T17:01:44.042Z,32.17
2023-04-30T17:04:12.639Z,32.09
2023-04-30T17:06:40.848Z,32.32
2023-04-30T17:09:08.985Z,33.01
2023-04-30T17:11:37.362Z,32.92
2023-04-30T17:14:05.437Z,33.56
2023-04-30T17:16:33.702Z,34.20
2023-04-30T17:19:01.975Z,34.20
2023-04-30T17:21:30.365Z,34.12
2023-04-30T17:23:58.834Z,34.04
2023-04-30T17:26:27.336Z,34.09
2023-04-30T17:28:55.796Z,34.85
2023-04-30T17:31:24.549Z,35.10
2023-04-30T17:33:52.963Z,35.61
2023-04-30T17:36:21.231Z,35.61
2023-04-30T17:38:49.303Z,35.68
2023-04-30T17:41:18.804Z,35.58
2023-04-30T17:43:46.984Z,36.09
2023-04-30T17:46:15.116Z,36.17
2023-04-30T17:48:43.256Z,36.52
2023-04-30T17:51:11.501Z,37.12
2023-04-30T17:53:40.831Z,37.96
2023-04-30T17:56:09.900Z,38.29
2023-04-30T17:58:39.827Z,39.39
2023-04-30T18:01:08.900Z,40.46
2023-04-30T18:03:37.109Z,41.45
2023-04-30T18:06:05.432Z,42.25
2023-04-30T18:08:33.729Z,42.25
2023-04-30T18:11:04.772Z,43.12
2023-04-30T18:13:33.038Z,44.19
2023-04-30T18:16:01.352Z,45.00
2023-04-30T18:18:29.600Z,45.83
2023-04-30T18:20:57.795Z,46.54
2023-04-30T18:23:26.142Z,46.45
2023-04-30T18:25:54.203Z,46.41
2023-04-30T18:28:22.389Z,47.35
2023-04-30T18:30:50.685Z,48.64
2023-04-30T18:33:19.029Z,49.89
2023-04-30T18:35:50.589Z,50.71
2023-04-30T18:38:18.974Z,51.50
2023-04-30T18:40:47.133Z,52.69
2023-04-30T18:43:16.952Z,53.27
2023-04-30T18:45:45.114Z,54.47
2023-04-30T18:48:15.435Z,55.67
2023-04-30T18:50:43.536Z,56.37
2023-04-30T18:53:12.495Z,55.97
2023-04-30T18:55:41.485Z,56.21
2023-04-30T18:58:09.680Z,56.47
2023-04-30T19:00:37.842Z,57.09
2023-04-30T19:03:06.119Z,57.82
2023-04-30T19:05:36.015Z,58.58
2023-04-30T19:08:04.207Z,58.75
2023-04-30T19:10:34.111Z,59.32
2023-04-30T19:13:02.694Z,60.30
2023-04-30T19:15:30.961Z,62.64
2023-04-30T19:17:59.183Z,65.00
2023-04-30T19:20:27.417Z,64.56
2023-04-30T19:22:55.715Z,63.29
2023-04-30T19:25:23.859Z,62.35
2023-04-30T19:27:52.027Z,61.53
2023-04-30T19:30:20.196Z,58.51
2023-04-30T19:32:48.484Z,55.97
2023-04-30T19:35:16.754Z,55.70
2023-04-30T19:37:45.320Z,56.63
2023-04-30T19:40:14.812Z,57.25
2023-04-30T19:42:42.910Z,57.65
2023-04-30T19:45:11.692Z,57.71
2023-04-30T19:47:39.903Z,58.70
2023-04-30T19:50:08.964Z,59.57
2023-04-30T19:52:37.232Z,62.26
2023-04-30T19:55:06.118Z,64.77
2023-04-30T19:57:36.122Z,64.87
2023-04-30T20:00:04.718Z,63.62
2023-04-30T20:02:35.188Z,62.70
2023-04-30T20:05:06.923Z,61.84
2023-04-30T20:07:35.993Z,61.38
2023-04-30T20:10:04.649Z,58.81
2023-04-30T20:12:32.749Z,56.63
2023-04-30T20:15:01.239Z,56.71
2023-04-30T20:17:29.494Z,57.70
2023-04-30T20:19:58.209Z,58.46
2023-04-30T20:22:27.693Z,59.24
2023-04-30T20:24:56.577Z,61.51
2023-04-30T20:27:25.889Z,63.93
2023-04-30T20:29:54.555Z,64.31
2023-04-30T20:32:22.994Z,63.74
2023-04-30T20:34:52.339Z,62.61
2023-04-30T20:37:20.432Z,61.99
2023-04-30T20:39:48.583Z,61.72
2023-04-30T20:42:17.060Z,61.72
2023-04-30T20:44:45.131Z,61.14
2023-04-30T20:47:14.565Z,60.58
2023-04-30T20:49:43.744Z,58.59
2023-04-30T20:52:15.700Z,56.33
2023-04-30T20:54:44.076Z,56.41
2023-04-30T20:57:12.140Z,57.17
2023-04-30T20:59:40.211Z,58.24
2023-04-30T21:02:09.208Z,59.01
2023-04-30T21:04:37.475Z,59.96
2023-04-30T21:07:05.852Z,62.58
2023-04-30T21:09:35.977Z,65.12
2023-04-30T21:12:05.546Z,65.10
2023-04-30T21:14:34.365Z,64.72
2023-04-30T21:17:02.770Z,64.33
2023-04-30T21:19:31.739Z,63.78
2023-04-30T21:22:00.219Z,63.21
2023-04-30T21:24:31.263Z,62.24
2023-04-30T21:27:00.526Z,61.79
2023-04-30T21:29:28.831Z,61.01
2023-04-30T21:31:57.207Z,60.79
2023-04-30T21:34:25.480Z,60.35
2023-04-30T21:36:53.650Z,58.79
2023-04-30T21:39:21.826Z,57.01
2023-04-30T21:41:50.405Z,57.19
2023-04-30T21:44:19.910Z,57.99
2023-04-30T21:46:48.290Z,58.66
2023-04-30T21:49:17.083Z,59.29
2023-04-30T21:51:45.451Z,60.08
2023-04-30T21:54:13.618Z,62.51
2023-04-30T21:56:41.693Z,65.54
2023-04-30T21:59:09.861Z,65.67
2023-04-30T22:01:38.232Z,65.34
2023-04-30T22:04:06.568Z,64.68
2023-04-30T22:06:35.192Z,64.22
2023-04-30T22:09:04.719Z,63.77
2023-04-30T22:11:33.176Z,62.90
2023-04-30T22:14:01.345Z,62.36
2023-04-30T22:16:29.572Z,62.22
2023-04-30T22:18:59.033Z,61.77
2023-04-30T22:21:27.507Z,61.46
2023-04-30T22:23:55.879Z,61.27
2023-04-30T22:26:25.568Z,60.95
2023-04-30T22:28:53.757Z,60.77
2023-04-30T22:31:22.109Z,60.54
2023-04-30T22:33:50.310Z,60.27
2023-04-30T22:36:18.687Z,58.62
2023-04-30T22:38:46.758Z,56.60
2023-04-30T22:41:15.028Z,56.78
2023-04-30T22:43:46.780Z,57.66
2023-04-30T22:46:15.680Z,58.83
2023-04-30T22:48:44.577Z,59.80
2023-04-30T22:51:12.740Z,62.35
2023-04-30T22:53:40.814Z,65.33
2023-04-30T22:56:09.091Z,65.75
2023-04-30T22:58:37.465Z,65.34
2023-04-30T23:01:05.620Z,64.99
2023-04-30T23:03:34.107Z,64.21
2023-04-30T23:06:02.325Z,63.57
2023-04-30T23:08:30.665Z,63.15
2023-04-30T23:10:58.831Z,62.63
2023-04-30T23:13:27.006Z,62.03
2023-04-30T23:15:58.957Z,62.14
2023-04-30T23:18:27.443Z,61.84
2023-04-30T23:20:59.039Z,61.46
2023-04-30T23:23:28.396Z,61.25
2023-04-30T23:25:56.773Z,61.17
2023-04-30T23:28:25.154Z,60.91
2023-04-30T23:30:54.351Z,60.72
2023-04-30T23:33:22.420Z,60.77
2023-04-30T23:35:53.175Z,60.25
2023-04-30T23:38:21.733Z,60.05
2023-04-30T23:40:50.013Z,60.12
2023-04-30T23:43:18.180Z,60.13
2023-04-30T23:45:46.454Z,59.88
2023-04-30T23:48:15.781Z,59.85
2023-04-30T23:50:43.926Z,59.76
2023-04-30T23:53:12.711Z,58.61
2023-04-30T23:55:41.708Z,57.10
2023-04-30T23:58:09.875Z,57.19
